sensor_id;sensor_type;location;lat;lon;timestamp;temperature;humidity
490;DHT22;231;48.120;11.576;2022-07-24T00:01:21;24.10;22.20
490;DHT22;231;48.120;11.576;2022-07-24T00:03:48;24.00;22.40
490;DHT22;231;48.120;11.576;2022-07-24T00:06:17;23.90;22.60
490;DHT22;231;48.120;11.576;2022-07-24T00:08:44;24.00;22.80
490;DHT22;231;48.120;11.576;2022-07-24T00:11:11;23.90;22.50
490;DHT22;231;48.120;11.576;2022-07-24T00:13:38;23.90;22.90
490;DHT22;231;48.120;11.576;2022-07-24T00:16:05;24.00;22.90
490;DHT22;231;48.120;11.576;2022-07-24T00:18:33;24.00;22.70
490;DHT22;231;48.120;11.576;2022-07-24T00:21:00;24.00;22.60
490;DHT22;231;48.120;11.576;2022-07-24T00:23:29;24.00;22.60
490;DHT22;231;48.120;11.576;2022-07-24T00:25:56;24.00;22.50
490;DHT22;231;48.120;11.576;2022-07-24T00:28:23;24.00;22.50
490;DHT22;231;48.120;11.576;2022-07-24T00:30:50;24.10;22.50
490;DHT22;231;48.120;11.576;2022-07-24T00:33:17;24.10;22.40
490;DHT22;231;48.120;11.576;2022-07-24T00:35:44;24.00;22.40
490;DHT22;231;48.120;11.576;2022-07-24T00:38:11;24.00;22.50
490;DHT22;231;48.120;11.576;2022-07-24T00:40:39;23.90;22.80
490;DHT22;231;48.120;11.576;2022-07-24T00:43:06;23.90;22.60
490;DHT22;231;48.120;11.576;2022-07-24T00:45:34;23.80;22.60
490;DHT22;231;48.120;11.576;2022-07-24T00:48:00;23.70;22.80
490;DHT22;231;48.120;11.576;2022-07-24T00:50:27;23.70;23.10
490;DHT22;231;48.120;11.576;2022-07-24T00:52:55;23.70;23.00
490;DHT22;231;48.120;11.576;2022-07-24T00:55:22;23.60;23.00
490;DHT22;231;48.120;11.576;2022-07-24T00:57:51;23.60;23.00
490;DHT22;231;48.120;11.576;2022-07-24T01:00:19;23.60;23.10
490;DHT22;231;48.120;11.576;2022-07-24T01:02:48;23.60;23.20
490;DHT22;231;48.120;11.576;2022-07-24T01:05:15;23.60;23.30
490;DHT22;231;48.120;11.576;2022-07-24T01:07:42;23.50;23.10
490;DHT22;231;48.120;11.576;2022-07-24T01:10:09;23.60;23.50
490;DHT22;231;48.120;11.576;2022-07-24T01:12:38;23.50;24.30
490;DHT22;231;48.120;11.576;2022-07-24T01:15:09;23.50;24.60
490;DHT22;231;48.120;11.576;2022-07-24T01:17:39;23.50;24.90
490;DHT22;231;48.120;11.576;2022-07-24T01:20:08;23.50;24.90
490;DHT22;231;48.120;11.576;2022-07-24T01:22:38;23.40;24.90
490;DHT22;231;48.120;11.576;2022-07-24T01:25:06;23.40;25.10
490;DHT22;231;48.120;11.576;2022-07-24T01:27:33;23.40;24.90
490;DHT22;231;48.120;11.576;2022-07-24T01:30:00;23.50;24.70
490;DHT22;231;48.120;11.576;2022-07-24T01:32:27;23.50;24.90
490;DHT22;231;48.120;11.576;2022-07-24T01:34:54;23.40;25.10
490;DHT22;231;48.120;11.576;2022-07-24T01:37:21;23.40;25.40
490;DHT22;231;48.120;11.576;2022-07-24T01:39:50;23.40;25.20
490;DHT22;231;48.120;11.576;2022-07-24T01:42:17;23.40;25.50
490;DHT22;231;48.120;11.576;2022-07-24T01:44:45;23.40;25.50
490;DHT22;231;48.120;11.576;2022-07-24T01:47:12;23.40;25.20
490;DHT22;231;48.120;11.576;2022-07-24T01:49:39;23.40;25.20
490;DHT22;231;48.120;11.576;2022-07-24T01:52:06;23.50;25.10
490;DHT22;231;48.120;11.576;2022-07-24T01:54:33;23.60;25.00
490;DHT22;231;48.120;11.576;2022-07-24T01:57:02;23.60;25.00
490;DHT22;231;48.120;11.576;2022-07-24T01:59:29;23.60;25.00
490;DHT22;231;48.120;11.576;2022-07-24T02:01:56;23.60;25.00
490;DHT22;231;48.120;11.576;2022-07-24T02:04:23;23.60;25.00
490;DHT22;231;48.120;11.576;2022-07-24T02:06:50;23.60;25.00
490;DHT22;231;48.120;11.576;2022-07-24T02:09:17;23.50;25.50
490;DHT22;231;48.120;11.576;2022-07-24T02:11:44;23.50;25.50
490;DHT22;231;48.120;11.576;2022-07-24T02:14:12;23.50;25.40
490;DHT22;231;48.120;11.576;2022-07-24T02:16:39;23.50;25.50
490;DHT22;231;48.120;11.576;2022-07-24T02:19:06;23.50;25.60
490;DHT22;231;48.120;11.576;2022-07-24T02:21:33;23.40;25.70
490;DHT22;231;48.120;11.576;2022-07-24T02:24:00;23.40;26.00
490;DHT22;231;48.120;11.576;2022-07-24T02:26:28;23.30;26.10
490;DHT22;231;48.120;11.576;2022-07-24T02:28:55;23.20;26.30
490;DHT22;231;48.120;11.576;2022-07-24T02:31:23;23.20;26.60
490;DHT22;231;48.120;11.576;2022-07-24T02:33:50;23.30;26.60
490;DHT22;231;48.120;11.576;2022-07-24T02:36:17;23.30;26.70
490;DHT22;231;48.120;11.576;2022-07-24T02:38:44;23.30;26.50
490;DHT22;231;48.120;11.576;2022-07-24T02:41:11;23.30;26.50
490;DHT22;231;48.120;11.576;2022-07-24T02:43:38;23.40;26.90
490;DHT22;231;48.120;11.576;2022-07-24T02:46:05;23.30;26.20
490;DHT22;231;48.120;11.576;2022-07-24T02:48:33;23.20;26.30
490;DHT22;231;48.120;11.576;2022-07-24T02:51:01;23.10;26.90
490;DHT22;231;48.120;11.576;2022-07-24T02:53:28;23.10;27.30
490;DHT22;231;48.120;11.576;2022-07-24T02:55:55;23.20;27.70
490;DHT22;231;48.120;11.576;2022-07-24T02:58:21;23.10;27.70
490;DHT22;231;48.120;11.576;2022-07-24T03:00:48;23.10;27.70
490;DHT22;231;48.120;11.576;2022-07-24T03:03:15;23.10;27.90
490;DHT22;231;48.120;11.576;2022-07-24T03:05:44;23.10;28.20
490;DHT22;231;48.120;11.576;2022-07-24T03:08:11;23.10;28.40
490;DHT22;231;48.120;11.576;2022-07-24T03:10:38;23.00;28.50
490;DHT22;231;48.120;11.576;2022-07-24T03:13:05;23.00;28.50
490;DHT22;231;48.120;11.576;2022-07-24T03:15:32;23.00;28.50
490;DHT22;231;48.120;11.576;2022-07-24T03:17:59;23.00;28.60
490;DHT22;231;48.120;11.576;2022-07-24T03:20:28;22.90;28.60
490;DHT22;231;48.120;11.576;2022-07-24T03:22:57;22.90;28.80
490;DHT22;231;48.120;11.576;2022-07-24T03:25:24;22.80;29.00
490;DHT22;231;48.120;11.576;2022-07-24T03:27:52;22.80;29.20
490;DHT22;231;48.120;11.576;2022-07-24T03:30:19;22.70;29.50
490;DHT22;231;48.120;11.576;2022-07-24T03:32:46;22.60;29.70
490;DHT22;231;48.120;11.576;2022-07-24T03:35:13;22.60;30.10
490;DHT22;231;48.120;11.576;2022-07-24T03:37:40;22.50;30.50
490;DHT22;231;48.120;11.576;2022-07-24T03:40:10;22.50;30.70
490;DHT22;231;48.120;11.576;2022-07-24T03:42:37;22.50;31.50
490;DHT22;231;48.120;11.576;2022-07-24T03:45:06;22.60;30.70
490;DHT22;231;48.120;11.576;2022-07-24T03:47:33;22.60;30.40
490;DHT22;231;48.120;11.576;2022-07-24T03:50:00;22.60;30.20
490;DHT22;231;48.120;11.576;2022-07-24T03:52:28;22.60;30.10
490;DHT22;231;48.120;11.576;2022-07-24T03:54:54;22.60;30.30
490;DHT22;231;48.120;11.576;2022-07-24T03:57:23;22.60;30.40
490;DHT22;231;48.120;11.576;2022-07-24T03:59:50;22.60;30.40
490;DHT22;231;48.120;11.576;2022-07-24T04:02:18;22.50;30.60
490;DHT22;231;48.120;11.576;2022-07-24T04:04:45;22.50;30.90
490;DHT22;231;48.120;11.576;2022-07-24T04:07:12;22.50;31.00
490;DHT22;231;48.120;11.576;2022-07-24T04:09:38;22.50;31.10
490;DHT22;231;48.120;11.576;2022-07-24T04:12:06;22.50;31.10
490;DHT22;231;48.120;11.576;2022-07-24T04:14:35;22.50;31.10
490;DHT22;231;48.120;11.576;2022-07-24T04:17:02;22.50;30.80
490;DHT22;231;48.120;11.576;2022-07-24T04:19:29;22.40;31.40
490;DHT22;231;48.120;11.576;2022-07-24T04:21:56;22.30;32.10
490;DHT22;231;48.120;11.576;2022-07-24T04:24:23;22.20;32.50
490;DHT22;231;48.120;11.576;2022-07-24T04:26:50;22.20;32.90
490;DHT22;231;48.120;11.576;2022-07-24T04:29:17;22.20;32.90
490;DHT22;231;48.120;11.576;2022-07-24T04:31:45;22.10;33.30
490;DHT22;231;48.120;11.576;2022-07-24T04:34:12;22.10;33.50
490;DHT22;231;48.120;11.576;2022-07-24T04:36:39;22.20;33.10
490;DHT22;231;48.120;11.576;2022-07-24T04:39:06;22.20;33.00
490;DHT22;231;48.120;11.576;2022-07-24T04:41:33;22.20;33.10
490;DHT22;231;48.120;11.576;2022-07-24T04:44:00;22.30;32.60
490;DHT22;231;48.120;11.576;2022-07-24T04:46:27;22.30;32.30
490;DHT22;231;48.120;11.576;2022-07-24T04:48:56;22.30;32.90
490;DHT22;231;48.120;11.576;2022-07-24T04:51:23;22.30;32.90
490;DHT22;231;48.120;11.576;2022-07-24T04:53:50;22.30;33.40
490;DHT22;231;48.120;11.576;2022-07-24T04:56:18;22.30;33.60
490;DHT22;231;48.120;11.576;2022-07-24T04:58:45;22.30;33.20
490;DHT22;231;48.120;11.576;2022-07-24T05:01:12;22.40;33.00
490;DHT22;231;48.120;11.576;2022-07-24T05:03:40;22.50;32.30
490;DHT22;231;48.120;11.576;2022-07-24T05:06:08;22.60;31.80
490;DHT22;231;48.120;11.576;2022-07-24T05:08:35;22.70;31.50
490;DHT22;231;48.120;11.576;2022-07-24T05:11:02;22.70;30.60
490;DHT22;231;48.120;11.576;2022-07-24T05:13:29;22.70;30.40
490;DHT22;231;48.120;11.576;2022-07-24T05:15:56;22.80;30.30
490;DHT22;231;48.120;11.576;2022-07-24T05:18:23;22.90;29.60
490;DHT22;231;48.120;11.576;2022-07-24T05:20:50;23.10;29.60
490;DHT22;231;48.120;11.576;2022-07-24T05:23:19;23.20;29.30
490;DHT22;231;48.120;11.576;2022-07-24T05:25:46;23.20;28.50
490;DHT22;231;48.120;11.576;2022-07-24T05:28:12;23.30;28.10
490;DHT22;231;48.120;11.576;2022-07-24T05:30:39;23.30;27.90
490;DHT22;231;48.120;11.576;2022-07-24T05:33:06;23.30;27.90
490;DHT22;231;48.120;11.576;2022-07-24T05:35:33;23.40;28.00
490;DHT22;231;48.120;11.576;2022-07-24T05:38:00;23.50;27.20
490;DHT22;231;48.120;11.576;2022-07-24T05:40:29;23.60;26.40
490;DHT22;231;48.120;11.576;2022-07-24T05:42:56;23.60;26.00
490;DHT22;231;48.120;11.576;2022-07-24T05:45:23;23.70;26.00
490;DHT22;231;48.120;11.576;2022-07-24T05:47:50;23.80;25.60
490;DHT22;231;48.120;11.576;2022-07-24T05:50:17;23.80;25.10
490;DHT22;231;48.120;11.576;2022-07-24T05:52:44;23.90;25.10
490;DHT22;231;48.120;11.576;2022-07-24T05:55:11;24.00;24.90
490;DHT22;231;48.120;11.576;2022-07-24T05:57:39;24.00;24.70
490;DHT22;231;48.120;11.576;2022-07-24T06:00:07;24.10;24.50
490;DHT22;231;48.120;11.576;2022-07-24T06:02:35;24.10;24.30
490;DHT22;231;48.120;11.576;2022-07-24T06:05:02;23.90;24.20
490;DHT22;231;48.120;11.576;2022-07-24T06:07:29;23.90;24.30
490;DHT22;231;48.120;11.576;2022-07-24T06:09:56;23.90;24.50
490;DHT22;231;48.120;11.576;2022-07-24T06:12:23;23.90;24.30
490;DHT22;231;48.120;11.576;2022-07-24T06:14:51;24.00;24.20
490;DHT22;231;48.120;11.576;2022-07-24T06:17:18;24.10;23.90
490;DHT22;231;48.120;11.576;2022-07-24T06:19:45;24.20;23.10
490;DHT22;231;48.120;11.576;2022-07-24T06:22:12;24.20;23.30
490;DHT22;231;48.120;11.576;2022-07-24T06:24:39;24.20;23.00
490;DHT22;231;48.120;11.576;2022-07-24T06:27:06;24.20;22.30
490;DHT22;231;48.120;11.576;2022-07-24T06:29:33;24.20;22.00
490;DHT22;231;48.120;11.576;2022-07-24T06:32:01;24.30;22.00
490;DHT22;231;48.120;11.576;2022-07-24T06:34:28;24.40;21.50
490;DHT22;231;48.120;11.576;2022-07-24T06:36:55;24.40;20.60
490;DHT22;231;48.120;11.576;2022-07-24T06:39:22;24.50;20.50
490;DHT22;231;48.120;11.576;2022-07-24T06:41:49;24.60;19.30
490;DHT22;231;48.120;11.576;2022-07-24T06:44:16;24.60;18.90
490;DHT22;231;48.120;11.576;2022-07-24T06:46:43;24.50;19.00
490;DHT22;231;48.120;11.576;2022-07-24T06:49:11;24.70;19.00
490;DHT22;231;48.120;11.576;2022-07-24T06:51:38;24.80;18.90
490;DHT22;231;48.120;11.576;2022-07-24T06:54:05;24.90;18.90
490;DHT22;231;48.120;11.576;2022-07-24T06:56:32;25.00;18.60
490;DHT22;231;48.120;11.576;2022-07-24T06:59:00;24.90;17.70
490;DHT22;231;48.120;11.576;2022-07-24T07:01:27;25.00;17.60
490;DHT22;231;48.120;11.576;2022-07-24T07:03:54;25.20;17.40
490;DHT22;231;48.120;11.576;2022-07-24T07:06:22;25.20;16.70
490;DHT22;231;48.120;11.576;2022-07-24T07:08:49;25.20;16.00
490;DHT22;231;48.120;11.576;2022-07-24T07:11:16;25.20;15.20
490;DHT22;231;48.120;11.576;2022-07-24T07:13:44;25.10;15.40
490;DHT22;231;48.120;11.576;2022-07-24T07:16:11;24.90;16.00
490;DHT22;231;48.120;11.576;2022-07-24T07:18:38;25.10;16.30
490;DHT22;231;48.120;11.576;2022-07-24T07:21:05;25.40;15.70
490;DHT22;231;48.120;11.576;2022-07-24T07:23:33;26.00;14.00
490;DHT22;231;48.120;11.576;2022-07-24T07:26:01;26.90;10.60
490;DHT22;231;48.120;11.576;2022-07-24T07:28:28;28.20;8.40
490;DHT22;231;48.120;11.576;2022-07-24T07:30:56;29.40;5.80
490;DHT22;231;48.120;11.576;2022-07-24T07:33:23;30.40;2.90
490;DHT22;231;48.120;11.576;2022-07-24T07:35:52;31.30;1.30
490;DHT22;231;48.120;11.576;2022-07-24T07:38:19;31.70;1.00
490;DHT22;231;48.120;11.576;2022-07-24T07:40:47;32.20;1.00
490;DHT22;231;48.120;11.576;2022-07-24T07:43:14;32.10;1.00
490;DHT22;231;48.120;11.576;2022-07-24T07:45:41;32.30;1.00
490;DHT22;231;48.120;11.576;2022-07-24T07:48:08;32.50;1.00
490;DHT22;231;48.120;11.576;2022-07-24T07:50:35;32.70;1.00
490;DHT22;231;48.120;11.576;2022-07-24T07:53:02;32.50;1.00
490;DHT22;231;48.120;11.576;2022-07-24T07:55:29;32.20;1.00
490;DHT22;231;48.120;11.576;2022-07-24T07:57:57;32.00;1.00
490;DHT22;231;48.120;11.576;2022-07-24T08:00:24;31.60;1.00
490;DHT22;231;48.120;11.576;2022-07-24T08:02:51;31.60;1.00
490;DHT22;231;48.120;11.576;2022-07-24T08:05:19;31.40;1.00
490;DHT22;231;48.120;11.576;2022-07-24T08:07:46;31.40;1.00
490;DHT22;231;48.120;11.576;2022-07-24T08:10:13;31.30;1.00
490;DHT22;231;48.120;11.576;2022-07-24T08:12:40;31.20;1.00
490;DHT22;231;48.120;11.576;2022-07-24T08:15:10;31.20;1.00
490;DHT22;231;48.120;11.576;2022-07-24T08:17:37;31.10;1.00
490;DHT22;231;48.120;11.576;2022-07-24T08:20:05;31.20;1.00
490;DHT22;231;48.120;11.576;2022-07-24T08:22:32;31.10;1.00
490;DHT22;231;48.120;11.576;2022-07-24T08:24:59;31.20;1.00
490;DHT22;231;48.120;11.576;2022-07-24T08:27:26;31.40;1.00
490;DHT22;231;48.120;11.576;2022-07-24T08:29:53;31.20;1.00
490;DHT22;231;48.120;11.576;2022-07-24T08:32:22;31.20;1.00
490;DHT22;231;48.120;11.576;2022-07-24T08:34:49;31.10;1.00
490;DHT22;231;48.120;11.576;2022-07-24T08:37:19;30.90;1.00
490;DHT22;231;48.120;11.576;2022-07-24T08:39:46;30.80;1.00
490;DHT22;231;48.120;11.576;2022-07-24T08:42:13;30.80;1.00
490;DHT22;231;48.120;11.576;2022-07-24T08:44:40;30.60;1.00
490;DHT22;231;48.120;11.576;2022-07-24T08:47:07;30.50;1.00
490;DHT22;231;48.120;11.576;2022-07-24T08:49:36;30.40;1.00
490;DHT22;231;48.120;11.576;2022-07-24T08:52:05;30.50;1.00
490;DHT22;231;48.120;11.576;2022-07-24T08:54:34;30.60;1.00
490;DHT22;231;48.120;11.576;2022-07-24T08:57:02;30.60;1.00
490;DHT22;231;48.120;11.576;2022-07-24T08:59:32;30.70;1.00
490;DHT22;231;48.120;11.576;2022-07-24T09:02:00;30.70;1.00
490;DHT22;231;48.120;11.576;2022-07-24T09:04:36;30.60;1.00
490;DHT22;231;48.120;11.576;2022-07-24T09:07:05;30.50;1.00
490;DHT22;231;48.120;11.576;2022-07-24T09:09:32;30.70;1.00
490;DHT22;231;48.120;11.576;2022-07-24T09:12:05;30.70;1.00
490;DHT22;231;48.120;11.576;2022-07-24T09:14:33;30.70;1.00
490;DHT22;231;48.120;11.576;2022-07-24T09:17:06;30.70;1.00
490;DHT22;231;48.120;11.576;2022-07-24T09:19:48;30.60;1.00
490;DHT22;231;48.120;11.576;2022-07-24T09:22:34;30.40;1.00
490;DHT22;231;48.120;11.576;2022-07-24T09:25:07;30.00;1.00
490;DHT22;231;48.120;11.576;2022-07-24T09:27:36;29.70;1.00
490;DHT22;231;48.120;11.576;2022-07-24T09:30:05;29.30;1.00
490;DHT22;231;48.120;11.576;2022-07-24T09:32:32;28.90;1.00
490;DHT22;231;48.120;11.576;2022-07-24T09:35:02;29.00;1.00
490;DHT22;231;48.120;11.576;2022-07-24T09:37:30;29.00;1.00
490;DHT22;231;48.120;11.576;2022-07-24T09:40:07;29.10;1.00
490;DHT22;231;48.120;11.576;2022-07-24T09:42:34;29.20;1.00
490;DHT22;231;48.120;11.576;2022-07-24T09:45:07;29.20;1.00
490;DHT22;231;48.120;11.576;2022-07-24T09:47:37;29.10;1.00
490;DHT22;231;48.120;11.576;2022-07-24T09:50:16;29.10;1.00
490;DHT22;231;48.120;11.576;2022-07-24T09:52:44;29.10;1.00
490;DHT22;231;48.120;11.576;2022-07-24T09:55:23;29.10;1.00
490;DHT22;231;48.120;11.576;2022-07-24T09:57:50;29.20;1.00
490;DHT22;231;48.120;11.576;2022-07-24T10:00:18;29.40;1.00
490;DHT22;231;48.120;11.576;2022-07-24T10:02:45;29.50;1.00
490;DHT22;231;48.120;11.576;2022-07-24T10:05:15;29.70;1.00
490;DHT22;231;48.120;11.576;2022-07-24T10:07:47;29.70;1.00
490;DHT22;231;48.120;11.576;2022-07-24T10:10:15;29.70;1.00
490;DHT22;231;48.120;11.576;2022-07-24T10:12:44;29.50;1.00
490;DHT22;231;48.120;11.576;2022-07-24T10:15:13;29.60;1.00
490;DHT22;231;48.120;11.576;2022-07-24T10:18:14;29.50;1.00
490;DHT22;231;48.120;11.576;2022-07-24T10:20:44;29.50;1.00
490;DHT22;231;48.120;11.576;2022-07-24T10:23:30;29.40;1.00
490;DHT22;231;48.120;11.576;2022-07-24T10:26:05;29.70;1.00
490;DHT22;231;48.120;11.576;2022-07-24T10:28:39;29.50;1.00
490;DHT22;231;48.120;11.576;2022-07-24T10:31:08;29.60;1.00
490;DHT22;231;48.120;11.576;2022-07-24T10:33:39;29.50;1.00
490;DHT22;231;48.120;11.576;2022-07-24T10:36:15;29.60;1.00
490;DHT22;231;48.120;11.576;2022-07-24T10:38:51;29.30;1.00
490;DHT22;231;48.120;11.576;2022-07-24T10:41:24;29.40;1.00
490;DHT22;231;48.120;11.576;2022-07-24T10:44:16;29.30;1.00
490;DHT22;231;48.120;11.576;2022-07-24T10:47:01;29.10;1.00
490;DHT22;231;48.120;11.576;2022-07-24T10:49:46;29.10;1.00
490;DHT22;231;48.120;11.576;2022-07-24T10:52:25;29.00;1.00
490;DHT22;231;48.120;11.576;2022-07-24T10:55:21;28.90;1.00
490;DHT22;231;48.120;11.576;2022-07-24T10:57:50;29.10;1.00
490;DHT22;231;48.120;11.576;2022-07-24T11:00:24;28.90;1.00
490;DHT22;231;48.120;11.576;2022-07-24T11:02:57;29.00;1.00
490;DHT22;231;48.120;11.576;2022-07-24T11:05:27;29.00;1.00
490;DHT22;231;48.120;11.576;2022-07-24T11:08:26;29.00;1.00
490;DHT22;231;48.120;11.576;2022-07-24T11:10:58;29.00;1.00
490;DHT22;231;48.120;11.576;2022-07-24T11:13:51;29.10;1.00
490;DHT22;231;48.120;11.576;2022-07-24T11:16:20;29.10;1.00
490;DHT22;231;48.120;11.576;2022-07-24T11:19:25;29.30;1.00
490;DHT22;231;48.120;11.576;2022-07-24T11:22:06;29.10;1.00
490;DHT22;231;48.120;11.576;2022-07-24T11:24:38;29.20;1.00
490;DHT22;231;48.120;11.576;2022-07-24T11:27:08;28.80;1.00
490;DHT22;231;48.120;11.576;2022-07-24T11:29:41;28.70;1.00
490;DHT22;231;48.120;11.576;2022-07-24T11:32:10;28.80;1.00
490;DHT22;231;48.120;11.576;2022-07-24T11:34:43;28.80;1.00
490;DHT22;231;48.120;11.576;2022-07-24T11:37:10;28.90;1.00
490;DHT22;231;48.120;11.576;2022-07-24T11:39:40;29.10;1.00
490;DHT22;231;48.120;11.576;2022-07-24T11:42:09;29.40;1.00
490;DHT22;231;48.120;11.576;2022-07-24T11:44:37;29.60;1.00
490;DHT22;231;48.120;11.576;2022-07-24T11:47:07;29.80;1.00
490;DHT22;231;48.120;11.576;2022-07-24T11:49:41;29.90;1.00
490;DHT22;231;48.120;11.576;2022-07-24T11:52:14;29.90;1.00
490;DHT22;231;48.120;11.576;2022-07-24T11:54:43;30.00;1.00
490;DHT22;231;48.120;11.576;2022-07-24T11:57:18;30.10;1.00
490;DHT22;231;48.120;11.576;2022-07-24T11:59:47;30.30;1.00
490;DHT22;231;48.120;11.576;2022-07-24T12:02:15;30.30;1.00
490;DHT22;231;48.120;11.576;2022-07-24T12:04:43;30.30;1.00
490;DHT22;231;48.120;11.576;2022-07-24T12:07:12;30.30;1.00
490;DHT22;231;48.120;11.576;2022-07-24T12:09:51;30.30;1.00
490;DHT22;231;48.120;11.576;2022-07-24T12:12:20;30.20;1.00
490;DHT22;231;48.120;11.576;2022-07-24T12:14:48;30.30;1.00
490;DHT22;231;48.120;11.576;2022-07-24T12:17:15;30.40;1.00
490;DHT22;231;48.120;11.576;2022-07-24T12:19:54;30.40;1.00
490;DHT22;231;48.120;11.576;2022-07-24T12:22:22;30.60;1.00
490;DHT22;231;48.120;11.576;2022-07-24T12:24:52;30.60;1.00
490;DHT22;231;48.120;11.576;2022-07-24T12:27:32;30.60;1.00
490;DHT22;231;48.120;11.576;2022-07-24T12:30:00;30.60;1.00
490;DHT22;231;48.120;11.576;2022-07-24T12:32:27;30.50;1.00
490;DHT22;231;48.120;11.576;2022-07-24T12:34:55;30.30;1.00
490;DHT22;231;48.120;11.576;2022-07-24T12:37:22;30.20;1.00
490;DHT22;231;48.120;11.576;2022-07-24T12:39:52;30.10;1.00
490;DHT22;231;48.120;11.576;2022-07-24T12:42:29;30.00;1.00
490;DHT22;231;48.120;11.576;2022-07-24T12:45:06;29.90;1.00
490;DHT22;231;48.120;11.576;2022-07-24T12:50:17;29.90;1.00
490;DHT22;231;48.120;11.576;2022-07-24T12:52:49;29.90;1.00
490;DHT22;231;48.120;11.576;2022-07-24T12:55:21;30.10;1.00
490;DHT22;231;48.120;11.576;2022-07-24T12:57:57;30.30;1.00
490;DHT22;231;48.120;11.576;2022-07-24T13:00:25;30.40;1.00
490;DHT22;231;48.120;11.576;2022-07-24T13:02:52;30.70;1.00
490;DHT22;231;48.120;11.576;2022-07-24T13:05:37;30.90;1.00
490;DHT22;231;48.120;11.576;2022-07-24T13:08:05;31.10;1.00
490;DHT22;231;48.120;11.576;2022-07-24T13:10:35;31.30;1.00
490;DHT22;231;48.120;11.576;2022-07-24T13:13:03;31.50;1.00
490;DHT22;231;48.120;11.576;2022-07-24T13:15:30;31.60;1.00
490;DHT22;231;48.120;11.576;2022-07-24T13:17:57;31.60;1.00
490;DHT22;231;48.120;11.576;2022-07-24T13:20:24;31.70;1.00
490;DHT22;231;48.120;11.576;2022-07-24T13:22:51;31.80;1.00
490;DHT22;231;48.120;11.576;2022-07-24T13:25:18;31.80;1.00
490;DHT22;231;48.120;11.576;2022-07-24T13:27:47;31.80;1.00
490;DHT22;231;48.120;11.576;2022-07-24T13:30:14;31.90;1.00
490;DHT22;231;48.120;11.576;2022-07-24T13:32:41;31.80;1.00
490;DHT22;231;48.120;11.576;2022-07-24T13:35:09;31.90;1.00
490;DHT22;231;48.120;11.576;2022-07-24T13:37:36;31.90;1.00
490;DHT22;231;48.120;11.576;2022-07-24T13:40:04;32.10;1.00
490;DHT22;231;48.120;11.576;2022-07-24T13:42:33;32.20;1.00
490;DHT22;231;48.120;11.576;2022-07-24T13:45:01;32.10;1.00
490;DHT22;231;48.120;11.576;2022-07-24T13:47:28;32.00;1.00
490;DHT22;231;48.120;11.576;2022-07-24T13:49:55;32.10;1.00
490;DHT22;231;48.120;11.576;2022-07-24T13:52:22;32.00;1.00
490;DHT22;231;48.120;11.576;2022-07-24T13:54:49;32.20;1.00
490;DHT22;231;48.120;11.576;2022-07-24T13:57:16;32.10;1.00
490;DHT22;231;48.120;11.576;2022-07-24T13:59:43;32.00;1.00
490;DHT22;231;48.120;11.576;2022-07-24T14:02:11;31.90;1.00
490;DHT22;231;48.120;11.576;2022-07-24T14:04:40;31.90;1.00
490;DHT22;231;48.120;11.576;2022-07-24T14:07:09;32.10;1.00
490;DHT22;231;48.120;11.576;2022-07-24T14:09:36;32.10;1.00
490;DHT22;231;48.120;11.576;2022-07-24T14:12:03;31.60;1.00
490;DHT22;231;48.120;11.576;2022-07-24T14:14:30;31.30;1.00
490;DHT22;231;48.120;11.576;2022-07-24T14:16:57;31.50;1.00
490;DHT22;231;48.120;11.576;2022-07-24T14:19:25;31.60;1.00
490;DHT22;231;48.120;11.576;2022-07-24T14:21:52;31.60;1.00
490;DHT22;231;48.120;11.576;2022-07-24T14:24:19;31.60;1.00
490;DHT22;231;48.120;11.576;2022-07-24T14:26:47;31.90;1.00
490;DHT22;231;48.120;11.576;2022-07-24T14:29:15;31.90;1.00
490;DHT22;231;48.120;11.576;2022-07-24T14:31:42;32.00;1.00
490;DHT22;231;48.120;11.576;2022-07-24T14:34:09;32.00;1.00
490;DHT22;231;48.120;11.576;2022-07-24T14:36:37;32.10;1.00
490;DHT22;231;48.120;11.576;2022-07-24T14:39:05;32.30;1.00
490;DHT22;231;48.120;11.576;2022-07-24T14:41:32;32.70;1.00
490;DHT22;231;48.120;11.576;2022-07-24T14:43:59;32.90;1.00
490;DHT22;231;48.120;11.576;2022-07-24T14:46:26;32.80;1.00
490;DHT22;231;48.120;11.576;2022-07-24T14:48:53;32.80;1.00
490;DHT22;231;48.120;11.576;2022-07-24T14:51:20;32.90;1.00
490;DHT22;231;48.120;11.576;2022-07-24T14:53:48;32.60;1.00
490;DHT22;231;48.120;11.576;2022-07-24T14:56:15;32.60;1.00
490;DHT22;231;48.120;11.576;2022-07-24T14:58:42;32.40;1.00
490;DHT22;231;48.120;11.576;2022-07-24T15:01:09;32.20;1.00
490;DHT22;231;48.120;11.576;2022-07-24T15:03:37;31.90;1.00
490;DHT22;231;48.120;11.576;2022-07-24T15:06:04;31.90;1.00
490;DHT22;231;48.120;11.576;2022-07-24T15:08:31;32.00;1.00
490;DHT22;231;48.120;11.576;2022-07-24T15:11:01;32.00;1.00
490;DHT22;231;48.120;11.576;2022-07-24T15:13:28;31.60;1.00
490;DHT22;231;48.120;11.576;2022-07-24T15:15:55;31.70;1.00
490;DHT22;231;48.120;11.576;2022-07-24T15:18:22;31.90;1.00
490;DHT22;231;48.120;11.576;2022-07-24T15:20:50;32.00;1.00
490;DHT22;231;48.120;11.576;2022-07-24T15:23:17;32.10;1.00
490;DHT22;231;48.120;11.576;2022-07-24T15:25:44;32.20;1.00
490;DHT22;231;48.120;11.576;2022-07-24T15:28:12;32.40;1.00
490;DHT22;231;48.120;11.576;2022-07-24T15:30:39;32.30;1.00
490;DHT22;231;48.120;11.576;2022-07-24T15:33:07;32.40;1.00
490;DHT22;231;48.120;11.576;2022-07-24T15:35:34;32.50;1.00
490;DHT22;231;48.120;11.576;2022-07-24T15:38:04;32.40;1.00
490;DHT22;231;48.120;11.576;2022-07-24T15:40:31;32.20;1.00
490;DHT22;231;48.120;11.576;2022-07-24T15:42:59;32.20;1.00
490;DHT22;231;48.120;11.576;2022-07-24T15:45:28;32.20;1.00
490;DHT22;231;48.120;11.576;2022-07-24T15:47:55;32.20;1.00
490;DHT22;231;48.120;11.576;2022-07-24T15:50:22;32.10;1.00
490;DHT22;231;48.120;11.576;2022-07-24T15:52:49;31.90;1.00
490;DHT22;231;48.120;11.576;2022-07-24T15:55:16;31.70;1.00
490;DHT22;231;48.120;11.576;2022-07-24T15:57:43;31.70;1.00
490;DHT22;231;48.120;11.576;2022-07-24T16:00:11;31.60;1.00
490;DHT22;231;48.120;11.576;2022-07-24T16:02:39;31.40;1.00
490;DHT22;231;48.120;11.576;2022-07-24T16:05:08;31.30;1.00
490;DHT22;231;48.120;11.576;2022-07-24T16:07:35;31.30;1.00
490;DHT22;231;48.120;11.576;2022-07-24T16:10:03;31.50;1.00
490;DHT22;231;48.120;11.576;2022-07-24T16:12:30;31.60;1.00
490;DHT22;231;48.120;11.576;2022-07-24T16:14:57;31.60;1.00
490;DHT22;231;48.120;11.576;2022-07-24T16:17:25;31.70;1.00
490;DHT22;231;48.120;11.576;2022-07-24T16:19:53;31.70;1.00
490;DHT22;231;48.120;11.576;2022-07-24T16:22:20;31.60;1.00
490;DHT22;231;48.120;11.576;2022-07-24T16:24:50;31.60;1.00
490;DHT22;231;48.120;11.576;2022-07-24T16:27:17;31.80;1.00
490;DHT22;231;48.120;11.576;2022-07-24T16:29:44;31.80;1.00
490;DHT22;231;48.120;11.576;2022-07-24T16:32:11;31.60;1.00
490;DHT22;231;48.120;11.576;2022-07-24T16:34:38;31.30;1.00
490;DHT22;231;48.120;11.576;2022-07-24T16:37:07;31.10;1.00
490;DHT22;231;48.120;11.576;2022-07-24T16:39:34;31.00;1.00